»·PEaware :: SKW3554 KSLC-KBOI

SKW3554 :: KSLC-KBOI

FLIGHT INFORMATION

Flight Status: Arrived
Operator:
SkyWest Airlines
More flights by this operator :: More flights under this callsign
Pilot: James L. (29223)
Aircraft: CANADAIR CL-600 CRJ-200
(CRJ2)
More flights by this aircraft type
Origin: KSLC Salt Lake City Intl
United States
Destination: KBOI Boise Air Terminal/Gowen
United States
More flights between these airports :: More routes between these airports
Route: +CGULL1 TWF BROPH SPUUD3
File this flight plan on PilotEdge
Remarks:
Altitude:
(Current/Filed)
34,000ft
Speed:
(Current/Filed)
450kts
Departed: 25-Apr-20 12:16 PM
Arrived: 25-Apr-20 01:00 PM
Distance/Time
Traveled:
252nm/0:44
Distance/Time
To Go:
Arrived

Flight Plot

Page will automatically refresh every two minutes.


Map Options




Map Legend


Flown Route
Filed Route
Departure Airport
Arrival Airport
Navaid (VOR, NDB)
Fix

Horizontal Profiles

Position Reports

Time Latitude Longitude Heading Altitude Ground
Speed
25-Apr-20 11:35 40.788844 -111.980598 262 4232ft 0kts
25-Apr-20 11:37 40.788844 -111.980598 262 4232ft 0kts
25-Apr-20 11:38 40.788844 -111.980598 262 4232ft 0kts
25-Apr-20 11:39 40.788844 -111.980598 262 4232ft 0kts
25-Apr-20 11:40 40.788844 -111.980598 262 4232ft 0kts
25-Apr-20 11:41 40.788844 -111.980598 262 4232ft 0kts
25-Apr-20 11:42 40.788844 -111.980598 262 4232ft 0kts
25-Apr-20 11:43 40.788844 -111.980598 262 4232ft 0kts
25-Apr-20 11:44 40.788844 -111.980598 262 4232ft 0kts
25-Apr-20 11:45 40.788844 -111.980598 262 4232ft 0kts
25-Apr-20 11:46 40.788844 -111.980598 262 4232ft 0kts
25-Apr-20 11:47 40.788844 -111.980598 262 4232ft 0kts
25-Apr-20 11:48 40.788844 -111.980598 262 4232ft 0kts
25-Apr-20 11:49 40.788844 -111.980598 262 4232ft 0kts
25-Apr-20 11:50 40.788844 -111.980598 262 4232ft 0kts
25-Apr-20 11:51 40.788844 -111.980598 262 4232ft 0kts
25-Apr-20 11:52 40.788844 -111.980598 262 4232ft 0kts
25-Apr-20 11:53 40.788844 -111.980598 262 4232ft 0kts
25-Apr-20 11:54 40.788844 -111.980598 262 4232ft 0kts
25-Apr-20 11:55 40.788844 -111.980598 262 4232ft 0kts
25-Apr-20 11:56 40.788844 -111.980598 262 4232ft 0kts
25-Apr-20 11:56 40.788844 -111.980598 262 4232ft 0kts
25-Apr-20 11:57 40.788844 -111.980598 262 4232ft 0kts
25-Apr-20 11:59 40.788844 -111.980598 262 4232ft 0kts
25-Apr-20 11:59 40.788844 -111.980598 262 4232ft 0kts
25-Apr-20 12:00 40.788844 -111.980598 262 4232ft 0kts
25-Apr-20 12:01 40.788886 -111.980071 271 4232ft 2kts
25-Apr-20 12:02 40.788578 -111.979640 353 4232ft 0kts
25-Apr-20 12:03 40.788578 -111.979640 353 4232ft 0kts
25-Apr-20 12:04 40.788578 -111.979640 353 4232ft 0kts
25-Apr-20 12:05 40.788578 -111.979640 353 4232ft 0kts
25-Apr-20 12:06 40.790570 -111.979430 356 4232ft 1kts
25-Apr-20 12:07 40.790797 -111.979453 355 4232ft 0kts
25-Apr-20 12:08 40.790291 -111.977646 75 4232ft 16kts
25-Apr-20 12:09 40.794366 -111.977597 355 4232ft 17kts
25-Apr-20 12:10 40.800027 -111.978248 354 4232ft 22kts
25-Apr-20 12:11 40.805661 -111.978428 351 4232ft 14kts
25-Apr-20 12:12 40.807167 -111.978478 36 4232ft 0kts
25-Apr-20 12:13 40.807167 -111.978478 36 4232ft 0kts
25-Apr-20 12:14 40.807167 -111.978478 36 4232ft 0kts
25-Apr-20 12:15 40.804893 -111.976641 174 4232ft 55kts
25-Apr-20 12:16 40.763670 -111.980167 222 6088ft 191kts
25-Apr-20 12:17 40.776560 -112.058009 306 9151ft 249kts
25-Apr-20 12:18 40.820785 -112.137837 306 9716ft 264kts
25-Apr-20 12:19 40.869803 -112.212769 339 10867ft 288kts
25-Apr-20 12:20 40.942951 -112.250221 338 15710ft 294kts
25-Apr-20 12:21 41.005677 -112.321585 310 19720ft 312kts
25-Apr-20 12:22 41.061865 -112.412671 310 22981ft 343kts
25-Apr-20 12:23 41.139391 -112.484212 327 24168ft 420kts
25-Apr-20 12:24 41.234671 -112.575900 323 26959ft 433kts
25-Apr-20 12:25 41.322680 -112.685290 312 28691ft 444kts
25-Apr-20 12:26 41.406421 -112.808082 310 30281ft 455kts
25-Apr-20 12:27 41.490465 -112.936443 311 31668ft 464kts
25-Apr-20 12:28 41.575632 -113.067204 311 32753ft 472kts
25-Apr-20 12:29 41.662243 -113.200774 311 33517ft 477kts
25-Apr-20 12:30 41.749204 -113.335490 311 33986ft 481kts
25-Apr-20 12:31 41.837434 -113.472792 311 34000ft 492kts
25-Apr-20 12:32 41.926374 -113.611847 311 34000ft 493kts
25-Apr-20 12:33 42.013867 -113.749269 310 34000ft 493kts
25-Apr-20 12:34 42.102560 -113.889233 310 34000ft 493kts
25-Apr-20 12:35 42.191450 -114.029970 310 34000ft 493kts
25-Apr-20 12:36 42.280238 -114.170671 310 34001ft 493kts
25-Apr-20 12:37 42.368855 -114.311764 310 34003ft 493kts
25-Apr-20 12:38 42.453705 -114.447497 310 32168ft 458kts
25-Apr-20 12:39 42.535142 -114.577497 310 29177ft 457kts
25-Apr-20 12:40 42.617959 -114.709892 310 26193ft 464kts
25-Apr-20 12:41 42.700827 -114.842967 310 24002ft 453kts
25-Apr-20 12:42 42.784908 -114.967018 313 23997ft 439kts
25-Apr-20 12:43 42.867176 -115.085327 313 21986ft 421kts
25-Apr-20 12:44 42.945038 -115.197870 313 18983ft 399kts
25-Apr-20 12:45 43.019242 -115.305710 313 15971ft 381kts
25-Apr-20 12:46 43.090129 -115.409120 313 12974ft 368kts
25-Apr-20 12:47 43.157751 -115.508046 313 10798ft 325kts
25-Apr-20 12:48 43.215159 -115.592131 313 10804ft 299kts
25-Apr-20 12:49 43.270130 -115.673726 306 9819ft 282kts
25-Apr-20 12:50 43.307207 -115.767723 297 9812ft 300kts
25-Apr-20 12:51 43.344591 -115.867616 297 9802ft 288kts
25-Apr-20 12:52 43.380961 -115.965395 297 9803ft 286kts
25-Apr-20 12:53 43.417062 -116.062808 297 9803ft 285kts
25-Apr-20 12:54 43.453033 -116.160213 297 9803ft 285kts
25-Apr-20 12:55 43.486308 -116.255079 296 8209ft 272kts
25-Apr-20 12:56 43.536245 -116.317819 16 5940ft 228kts
25-Apr-20 12:57 43.575766 -116.287187 31 4290ft 147kts
25-Apr-20 12:58 43.568557 -116.238266 114 2838ft 123kts
25-Apr-20 12:59 43.564802 -116.224144 3 2846ft 0kts
25-Apr-20 13:00 43.564802 -116.224144 3 2846ft 0kts
25-Apr-20 13:01 43.564825 -116.224142 3 2846ft 2kts
25-Apr-20 13:02 43.566500 -116.222563 116 2848ft 9kts
25-Apr-20 13:03 43.567245 -116.220694 22 2849ft 0kts

Navigation Log

Ident Type
Flight plan parsing failed, navigation log unavailable